(°C)
21°
21°
19°
18°
16°
14°
12°
(°C)
15°
15°
14°
13°
12°
11°
10°
OSO
OSO
O
O
O
O
O
(km/h)
29-46
27-48
26-49
24-48
20-41
15-31
10-23
(mm)
0.2
0.1
0
0
0
0
0
(%)
42
32
19
11
20
28
36

Élévation du soleil

/ 50.9°
sun-icon
UV 13
05:34
20:42
Premier croissant (6°)
05:44
21:40

METAR pour Walden (K33V)

Heure Conditions Température/
Point de rosée
Vent Visibilité Météo Nuages Pression Changement Brut
VFR 23°C / 4°C 240º 10kt Gust 19kt >10km - Scattered Clouds 8000ft - K33V 292135Z AUTO 24010G19KT 10SM SCT080 23/04 A3037 RMK AO1
VFR 23°C / 5°C 250º 4kt >10km - Scattered Clouds 8000ft - K33V 292115Z AUTO 25004KT 10SM SCT080 23/05 A3038 RMK AO1
VFR 21°C / 5°C 190º 4kt Gust 16kt >10km - Clear - K33V 292055Z AUTO 19004G16KT 10SM CLR 21/05 A3039 RMK AO1
VFR 21°C / 8°C 150º 7kt >10km - Clear - K33V 292035Z AUTO 15007KT 10SM CLR 21/08 A3040 RMK AO1
VFR 19°C / 7°C 110º 5kt >10km - Clear - K33V 292015Z AUTO 11005KT 10SM CLR 19/07 A3043 RMK AO1
VFR 18°C / 6°C 100º 4kt >10km - Scattered Clouds 11000ft - K33V 291955Z AUTO 10004KT 10SM SCT110 18/06 A3044 RMK AO1
VFR 16°C / 6°C 80º 3kt >10km - Overcast 11000ft - K33V 291935Z AUTO 08003KT 10SM OVC110 16/06 A3046 RMK AO1
VFR 16°C / 6°C variable 0kt >10km - Scattered Clouds 7000ft
Overcast 10000ft
- K33V 291915Z AUTO 00000KT 10SM SCT070 OVC100 16/06 A3047 RMK AO1
VFR 16°C / 6°C 270º 5kt >10km - Scattered Clouds 7000ft
Broken Clouds 9000ft
Overcast 11000ft
- K33V 291855Z AUTO 27005KT 10SM SCT070 BKN090 OVC110 16/06 A3048 RMK AO1
VFR 16°C / 6°C 270º 15kt Gust 27kt >10km - Scattered Clouds 7000ft
Overcast 8000ft
- K33V 291835Z AUTO 27015G27KT 10SM SCT070 OVC080 16/06 A3049 RMK AO1
VFR 18°C / 3°C 250º 25kt Gust 30kt >10km - Broken Clouds 8000ft
Overcast 9000ft
- K33V 291815Z AUTO 25025G30KT 10SM BKN080 OVC090 18/03 A3047 RMK AO1
VFR 20°C / 6°C 240º 12kt Gust 15kt >10km - Scattered Clouds 8000ft
Broken Clouds 10000ft
- K33V 291755Z AUTO 24012G15KT 10SM SCT080 BKN100 20/06 A3046 RMK AO1
VFR 19°C / 4°C 200º 9kt >10km - Scattered Clouds 10000ft
Scattered Clouds 12000ft
- K33V 291735Z AUTO 20009KT 10SM SCT100 SCT120 19/04 A3046 RMK AO1
VFR 19°C / 3°C 210º 11kt Gust 18kt >10km - Scattered Clouds 9000ft - K33V 291715Z AUTO 21011G18KT 10SM SCT090 19/03 A3045 RMK AO1
VFR 20°C / 4°C 200º 10kt Gust 14kt >10km - Scattered Clouds 9000ft - K33V 291655Z AUTO 20010G14KT 10SM SCT090 20/04 A3044 RMK AO1
VFR 21°C / 3°C 200º 11kt Gust 17kt >10km - Scattered Clouds 10000ft - K33V 291635Z AUTO 20011G17KT 10SM SCT100 21/03 A3044 RMK AO1
VFR 20°C / 3°C 190º 10kt >10km - Broken Clouds 9000ft - K33V 291615Z AUTO 19010KT 10SM BKN090 20/03 A3044 RMK AO1
VFR 19°C / 3°C 210º 11kt Gust 15kt >10km - Broken Clouds 9000ft - K33V 291555Z AUTO 21011G15KT 10SM BKN090 19/03 A3044 RMK AO1
VFR 19°C / 4°C 200º 12kt Gust 17kt >10km - Scattered Clouds 11000ft - K33V 291535Z AUTO 20012G17KT 10SM SCT110 19/04 A3045 RMK AO1
VFR 19°C / 3°C 200º 12kt >10km - Scattered Clouds 12000ft - K33V 291515Z AUTO 20012KT 10SM SCT120 19/03 A3046 RMK AO1
VFR 19°C / 3°C 190º 12kt Gust 16kt >10km - Scattered Clouds 11000ft - K33V 291455Z AUTO 19012G16KT 10SM SCT110 19/03 A3045 RMK AO1
VFR 18°C / 5°C 150º 10kt >10km - Clear - K33V 291435Z AUTO 15010KT 10SM CLR 18/05 A3044 RMK AO1
VFR 15°C / 5°C 150º 8kt >10km - Clear - K33V 291415Z AUTO 15008KT 10SM CLR 15/05 A3045 RMK AO1
VFR 14°C / 7°C 150º 7kt >10km - Clear - K33V 291355Z AUTO 15007KT 10SM CLR 14/07 A3046 RMK AO1

VFR

23°C / 4°C

[Plus]
Vent 240º 10kt Gust 19kt
Visibilité >10km
Météo -
Nuages Scattered Clouds 8000ft
Pression
Changement -
Brut K33V 292135Z AUTO 24010G19KT 10SM SCT080 23/04 A3037 RMK AO1

VFR

23°C / 5°C

[Plus]
Vent 250º 4kt
Visibilité >10km
Météo -
Nuages Scattered Clouds 8000ft
Pression
Changement -
Brut K33V 292115Z AUTO 25004KT 10SM SCT080 23/05 A3038 RMK AO1

VFR

21°C / 5°C

[Plus]
Vent 190º 4kt Gust 16kt
Visibilité >10km
Météo -
Nuages Clear
Pression
Changement -
Brut K33V 292055Z AUTO 19004G16KT 10SM CLR 21/05 A3039 RMK AO1

VFR

21°C / 8°C

[Plus]
Vent 150º 7kt
Visibilité >10km
Météo -
Nuages Clear
Pression
Changement -
Brut K33V 292035Z AUTO 15007KT 10SM CLR 21/08 A3040 RMK AO1

VFR

19°C / 7°C

[Plus]
Vent 110º 5kt
Visibilité >10km
Météo -
Nuages Clear
Pression
Changement -
Brut K33V 292015Z AUTO 11005KT 10SM CLR 19/07 A3043 RMK AO1

VFR

18°C / 6°C

[Plus]
Vent 100º 4kt
Visibilité >10km
Météo -
Nuages Scattered Clouds 11000ft
Pression
Changement -
Brut K33V 291955Z AUTO 10004KT 10SM SCT110 18/06 A3044 RMK AO1

VFR

16°C / 6°C

[Plus]
Vent 80º 3kt
Visibilité >10km
Météo -
Nuages Overcast 11000ft
Pression
Changement -
Brut K33V 291935Z AUTO 08003KT 10SM OVC110 16/06 A3046 RMK AO1

VFR

16°C / 6°C

[Plus]
Vent variable 0kt
Visibilité >10km
Météo -
Nuages Scattered Clouds 7000ft
Overcast 10000ft
Pression
Changement -
Brut K33V 291915Z AUTO 00000KT 10SM SCT070 OVC100 16/06 A3047 RMK AO1

VFR

16°C / 6°C

[Plus]
Vent 270º 5kt
Visibilité >10km
Météo -
Nuages Scattered Clouds 7000ft
Broken Clouds 9000ft
Overcast 11000ft
Pression
Changement -
Brut K33V 291855Z AUTO 27005KT 10SM SCT070 BKN090 OVC110 16/06 A3048 RMK AO1

VFR

16°C / 6°C

[Plus]
Vent 270º 15kt Gust 27kt
Visibilité >10km
Météo -
Nuages Scattered Clouds 7000ft
Overcast 8000ft
Pression
Changement -
Brut K33V 291835Z AUTO 27015G27KT 10SM SCT070 OVC080 16/06 A3049 RMK AO1

VFR

18°C / 3°C

[Plus]
Vent 250º 25kt Gust 30kt
Visibilité >10km
Météo -
Nuages Broken Clouds 8000ft
Overcast 9000ft
Pression
Changement -
Brut K33V 291815Z AUTO 25025G30KT 10SM BKN080 OVC090 18/03 A3047 RMK AO1

VFR

20°C / 6°C

[Plus]
Vent 240º 12kt Gust 15kt
Visibilité >10km
Météo -
Nuages Scattered Clouds 8000ft
Broken Clouds 10000ft
Pression
Changement -
Brut K33V 291755Z AUTO 24012G15KT 10SM SCT080 BKN100 20/06 A3046 RMK AO1

VFR

19°C / 4°C

[Plus]
Vent 200º 9kt
Visibilité >10km
Météo -
Nuages Scattered Clouds 10000ft
Scattered Clouds 12000ft
Pression
Changement -
Brut K33V 291735Z AUTO 20009KT 10SM SCT100 SCT120 19/04 A3046 RMK AO1

VFR

19°C / 3°C

[Plus]
Vent 210º 11kt Gust 18kt
Visibilité >10km
Météo -
Nuages Scattered Clouds 9000ft
Pression
Changement -
Brut K33V 291715Z AUTO 21011G18KT 10SM SCT090 19/03 A3045 RMK AO1

VFR

20°C / 4°C

[Plus]
Vent 200º 10kt Gust 14kt
Visibilité >10km
Météo -
Nuages Scattered Clouds 9000ft
Pression
Changement -
Brut K33V 291655Z AUTO 20010G14KT 10SM SCT090 20/04 A3044 RMK AO1

VFR

21°C / 3°C

[Plus]
Vent 200º 11kt Gust 17kt
Visibilité >10km
Météo -
Nuages Scattered Clouds 10000ft
Pression
Changement -
Brut K33V 291635Z AUTO 20011G17KT 10SM SCT100 21/03 A3044 RMK AO1

VFR

20°C / 3°C

[Plus]
Vent 190º 10kt
Visibilité >10km
Météo -
Nuages Broken Clouds 9000ft
Pression
Changement -
Brut K33V 291615Z AUTO 19010KT 10SM BKN090 20/03 A3044 RMK AO1

VFR

19°C / 3°C

[Plus]
Vent 210º 11kt Gust 15kt
Visibilité >10km
Météo -
Nuages Broken Clouds 9000ft
Pression
Changement -
Brut K33V 291555Z AUTO 21011G15KT 10SM BKN090 19/03 A3044 RMK AO1

VFR

19°C / 4°C

[Plus]
Vent 200º 12kt Gust 17kt
Visibilité >10km
Météo -
Nuages Scattered Clouds 11000ft
Pression
Changement -
Brut K33V 291535Z AUTO 20012G17KT 10SM SCT110 19/04 A3045 RMK AO1

VFR

19°C / 3°C

[Plus]
Vent 200º 12kt
Visibilité >10km
Météo -
Nuages Scattered Clouds 12000ft
Pression
Changement -
Brut K33V 291515Z AUTO 20012KT 10SM SCT120 19/03 A3046 RMK AO1

VFR

19°C / 3°C

[Plus]
Vent 190º 12kt Gust 16kt
Visibilité >10km
Météo -
Nuages Scattered Clouds 11000ft
Pression
Changement -
Brut K33V 291455Z AUTO 19012G16KT 10SM SCT110 19/03 A3045 RMK AO1

VFR

18°C / 5°C

[Plus]
Vent 150º 10kt
Visibilité >10km
Météo -
Nuages Clear
Pression
Changement -
Brut K33V 291435Z AUTO 15010KT 10SM CLR 18/05 A3044 RMK AO1

VFR

15°C / 5°C

[Plus]
Vent 150º 8kt
Visibilité >10km
Météo -
Nuages Clear
Pression
Changement -
Brut K33V 291415Z AUTO 15008KT 10SM CLR 15/05 A3045 RMK AO1

VFR

14°C / 7°C

[Plus]
Vent 150º 7kt
Visibilité >10km
Météo -
Nuages Clear
Pression
Changement -
Brut K33V 291355Z AUTO 15007KT 10SM CLR 14/07 A3046 RMK AO1

Radar et prévision de précipitation à court terme pour Walden

Bruine
Légère
Modéré
Fort
Très fort
Grêle

Le marqueur est placé sur Walden. Cette animation montre le Radar des précipitations pour les dernières heures, ainsi qu'une 1h prévision. La bruine ou les légères chutes de neiges peuvent ne pas être détectées par le radar. L'intensité des précipitations est visible avec un code couleur allant du bleu clair au violet foncé et orange.

Les images satellites pour Walden, États Unis

Le marqueur est placé sur Walden. [Plus]

L'image satellite en temps réel combine la lumière visible pendant la journée et le rayonnement infrarouge pendant la nuit. La nuit, l'image n'est pas sombre car le rayonnement infrarouge permet de détecter les différences de température. Malheureusement, les nuages bas et le brouillard sont difficiles à distinguer des températures au sol et peuvent donc être presque invisibles pendant la nuit. Les images des satellites Météosat pour l'Europe sont mises à jour en temps réel toutes les 5 minutes. Les images GOES-16/GOES-17 (Amérique du Nord et du Sud) et Himawari (Asie) sont mises à jour toutes les 10 minutes.

Retour vers le haut